sensor_id;sensor_type;location;lat;lon;timestamp;pressure;altitude;pressure_sealevel;temperature;humidity
73106;BME280;61559;50.476;15.588;2023-04-28T00:01:19;97922.23;;;1.01;73.92
73106;BME280;61559;50.476;15.588;2023-04-28T00:03:50;97919.47;;;0.99;73.94
73106;BME280;61559;50.476;15.588;2023-04-28T00:06:22;97922.79;;;1.01;74.01
73106;BME280;61559;50.476;15.588;2023-04-28T00:08:53;97925.62;;;1.00;73.83
73106;BME280;61559;50.476;15.588;2023-04-28T00:11:24;97922.63;;;0.99;73.71
73106;BME280;61559;50.476;15.588;2023-04-28T00:13:55;97924.77;;;0.97;73.76
73106;BME280;61559;50.476;15.588;2023-04-28T00:16:26;97925.05;;;0.96;73.92
73106;BME280;61559;50.476;15.588;2023-04-28T00:18:56;97924.92;;;0.93;73.75
73106;BME280;61559;50.476;15.588;2023-04-28T00:21:27;97927.15;;;0.90;74.12
73106;BME280;61559;50.476;15.588;2023-04-28T00:23:58;97926.05;;;0.86;74.21
73106;BME280;61559;50.476;15.588;2023-04-28T00:26:29;97925.23;;;0.80;74.25
73106;BME280;61559;50.476;15.588;2023-04-28T00:28:59;97922.77;;;0.79;74.35
73106;BME280;61559;50.476;15.588;2023-04-28T00:31:30;97923.39;;;0.76;74.40
73106;BME280;61559;50.476;15.588;2023-04-28T00:34:01;97919.56;;;0.75;74.25
73106;BME280;61559;50.476;15.588;2023-04-28T00:36:32;97920.64;;;0.72;74.27
73106;BME280;61559;50.476;15.588;2023-04-28T00:39:04;97920.91;;;0.69;74.19
73106;BME280;61559;50.476;15.588;2023-04-28T00:41:36;97928.86;;;0.65;74.16
73106;BME280;61559;50.476;15.588;2023-04-28T00:44:07;97925.36;;;0.61;74.27
73106;BME280;61559;50.476;15.588;2023-04-28T00:46:38;97920.55;;;0.61;74.39
73106;BME280;61559;50.476;15.588;2023-04-28T00:49:09;97917.39;;;0.57;74.29
73106;BME280;61559;50.476;15.588;2023-04-28T00:51:39;97919.86;;;0.53;74.71
73106;BME280;61559;50.476;15.588;2023-04-28T00:54:13;97917.98;;;0.49;74.79
73106;BME280;61559;50.476;15.588;2023-04-28T00:56:45;97911.05;;;0.47;74.79
73106;BME280;61559;50.476;15.588;2023-04-28T00:59:17;97913.56;;;0.43;74.83
73106;BME280;61559;50.476;15.588;2023-04-28T01:01:48;97912.67;;;0.37;75.05
73106;BME280;61559;50.476;15.588;2023-04-28T01:04:21;97914.29;;;0.33;75.00
73106;BME280;61559;50.476;15.588;2023-04-28T01:06:53;97909.02;;;0.30;74.97
73106;BME280;61559;50.476;15.588;2023-04-28T01:09:26;97907.39;;;0.30;75.15
73106;BME280;61559;50.476;15.588;2023-04-28T01:11:57;97902.73;;;0.27;75.12
73106;BME280;61559;50.476;15.588;2023-04-28T01:14:28;97901.23;;;0.25;75.33
73106;BME280;61559;50.476;15.588;2023-04-28T01:16:58;97900.36;;;0.21;75.37
73106;BME280;61559;50.476;15.588;2023-04-28T01:19:30;97898.45;;;0.18;75.38
73106;BME280;61559;50.476;15.588;2023-04-28T01:22:01;97898.92;;;0.16;75.38
73106;BME280;61559;50.476;15.588;2023-04-28T01:24:33;97899.44;;;0.14;75.16
73106;BME280;61559;50.476;15.588;2023-04-28T01:27:04;97899.89;;;0.11;75.30
73106;BME280;61559;50.476;15.588;2023-04-28T01:29:35;97904.27;;;0.09;75.47
73106;BME280;61559;50.476;15.588;2023-04-28T01:32:06;97904.79;;;0.07;75.68
73106;BME280;61559;50.476;15.588;2023-04-28T01:34:37;97899.09;;;0.05;75.80
73106;BME280;61559;50.476;15.588;2023-04-28T01:37:08;97892.95;;;0.05;75.86
73106;BME280;61559;50.476;15.588;2023-04-28T01:39:39;97896.89;;;0.04;75.86
73106;BME280;61559;50.476;15.588;2023-04-28T01:42:09;97897.20;;;0.01;75.79
73106;BME280;61559;50.476;15.588;2023-04-28T01:44:41;97897.40;;;-0.04;76.11
73106;BME280;61559;50.476;15.588;2023-04-28T01:47:12;97898.39;;;-0.08;76.28
73106;BME280;61559;50.476;15.588;2023-04-28T01:49:43;97888.16;;;-0.14;76.18
73106;BME280;61559;50.476;15.588;2023-04-28T01:52:17;97892.31;;;-0.17;76.39
73106;BME280;61559;50.476;15.588;2023-04-28T01:54:51;97886.86;;;-0.19;76.47
73106;BME280;61559;50.476;15.588;2023-04-28T01:57:23;97891.63;;;-0.19;76.67
73106;BME280;61559;50.476;15.588;2023-04-28T01:59:54;97891.40;;;-0.20;76.53
73106;BME280;61559;50.476;15.588;2023-04-28T02:02:25;97888.14;;;-0.21;76.56
73106;BME280;61559;50.476;15.588;2023-04-28T02:04:56;97881.85;;;-0.22;76.87
73106;BME280;61559;50.476;15.588;2023-04-28T02:07:28;97880.14;;;-0.21;76.89
73106;BME280;61559;50.476;15.588;2023-04-28T02:09:58;97880.15;;;-0.20;76.89
73106;BME280;61559;50.476;15.588;2023-04-28T02:12:31;97876.06;;;-0.20;76.86
73106;BME280;61559;50.476;15.588;2023-04-28T02:15:08;97875.27;;;-0.18;76.91
73106;BME280;61559;50.476;15.588;2023-04-28T02:17:39;97876.13;;;-0.16;77.16
73106;BME280;61559;50.476;15.588;2023-04-28T02:20:11;97878.98;;;-0.15;77.14
73106;BME280;61559;50.476;15.588;2023-04-28T02:22:43;97881.64;;;-0.13;77.15
73106;BME280;61559;50.476;15.588;2023-04-28T02:25:14;97880.20;;;-0.12;77.34
73106;BME280;61559;50.476;15.588;2023-04-28T02:27:45;97880.73;;;-0.10;77.34
73106;BME280;61559;50.476;15.588;2023-04-28T02:30:16;97882.98;;;-0.07;77.18
73106;BME280;61559;50.476;15.588;2023-04-28T02:32:48;97881.98;;;-0.05;77.29
73106;BME280;61559;50.476;15.588;2023-04-28T02:35:19;97881.84;;;-0.02;77.27
73106;BME280;61559;50.476;15.588;2023-04-28T02:37:50;97879.29;;;0.02;77.40
73106;BME280;61559;50.476;15.588;2023-04-28T02:40:22;97881.50;;;0.05;77.38
73106;BME280;61559;50.476;15.588;2023-04-28T02:42:53;97882.90;;;0.06;77.09
73106;BME280;61559;50.476;15.588;2023-04-28T02:45:24;97881.83;;;0.09;77.15
73106;BME280;61559;50.476;15.588;2023-04-28T02:47:55;97880.71;;;0.12;77.16
73106;BME280;61559;50.476;15.588;2023-04-28T02:50:27;97873.64;;;0.13;77.25
73106;BME280;61559;50.476;15.588;2023-04-28T02:52:58;97869.81;;;0.15;77.22
73106;BME280;61559;50.476;15.588;2023-04-28T02:55:29;97865.93;;;0.16;77.30
73106;BME280;61559;50.476;15.588;2023-04-28T02:58:01;97866.02;;;0.17;77.30
73106;BME280;61559;50.476;15.588;2023-04-28T03:00:30;97867.33;;;0.20;77.01
73106;BME280;61559;50.476;15.588;2023-04-28T03:03:01;97870.91;;;0.20;77.20
73106;BME280;61559;50.476;15.588;2023-04-28T03:05:33;97864.07;;;0.19;77.34
73106;BME280;61559;50.476;15.588;2023-04-28T03:08:05;97864.98;;;0.20;77.17
73106;BME280;61559;50.476;15.588;2023-04-28T03:10:36;97865.70;;;0.21;77.23
73106;BME280;61559;50.476;15.588;2023-04-28T03:13:07;97867.82;;;0.22;77.23
73106;BME280;61559;50.476;15.588;2023-04-28T03:15:38;97866.86;;;0.23;77.05
73106;BME280;61559;50.476;15.588;2023-04-28T03:18:09;97868.16;;;0.22;77.04
73106;BME280;61559;50.476;15.588;2023-04-28T03:20:40;97870.04;;;0.22;77.22
73106;BME280;61559;50.476;15.588;2023-04-28T03:23:11;97863.34;;;0.22;77.25
73106;BME280;61559;50.476;15.588;2023-04-28T03:25:42;97857.00;;;0.21;77.27
73106;BME280;61559;50.476;15.588;2023-04-28T03:28:12;97863.70;;;0.21;76.96
73106;BME280;61559;50.476;15.588;2023-04-28T03:30:45;97863.13;;;0.21;77.11
73106;BME280;61559;50.476;15.588;2023-04-28T03:33:16;97861.26;;;0.21;77.16
73106;BME280;61559;50.476;15.588;2023-04-28T03:35:47;97865.00;;;0.21;77.24
73106;BME280;61559;50.476;15.588;2023-04-28T03:38:18;97859.89;;;0.21;77.44
73106;BME280;61559;50.476;15.588;2023-04-28T03:40:49;97861.36;;;0.21;77.37
73106;BME280;61559;50.476;15.588;2023-04-28T03:43:21;97866.20;;;0.23;77.57
73106;BME280;61559;50.476;15.588;2023-04-28T03:45:52;97863.48;;;0.24;77.41
73106;BME280;61559;50.476;15.588;2023-04-28T03:48:23;97858.23;;;0.25;77.54
73106;BME280;61559;50.476;15.588;2023-04-28T03:50:55;97856.27;;;0.26;77.51
73106;BME280;61559;50.476;15.588;2023-04-28T03:53:26;97853.95;;;0.27;77.29
73106;BME280;61559;50.476;15.588;2023-04-28T03:55:57;97850.77;;;0.27;77.48
73106;BME280;61559;50.476;15.588;2023-04-28T03:58:28;97854.88;;;0.27;77.66
73106;BME280;61559;50.476;15.588;2023-04-28T04:00:59;97853.21;;;0.28;77.60
73106;BME280;61559;50.476;15.588;2023-04-28T04:03:30;97850.27;;;0.32;77.79
73106;BME280;61559;50.476;15.588;2023-04-28T04:06:02;97850.80;;;0.37;77.94
73106;BME280;61559;50.476;15.588;2023-04-28T04:08:33;97849.45;;;0.42;77.57
73106;BME280;61559;50.476;15.588;2023-04-28T04:11:04;97846.19;;;0.47;77.87
73106;BME280;61559;50.476;15.588;2023-04-28T04:13:35;97846.81;;;0.52;77.90
73106;BME280;61559;50.476;15.588;2023-04-28T04:16:07;97843.69;;;0.56;77.91
73106;BME280;61559;50.476;15.588;2023-04-28T04:18:39;97847.72;;;0.62;77.80
73106;BME280;61559;50.476;15.588;2023-04-28T04:21:10;97845.76;;;0.68;77.75
73106;BME280;61559;50.476;15.588;2023-04-28T04:23:41;97844.83;;;0.75;77.98
73106;BME280;61559;50.476;15.588;2023-04-28T04:26:12;97848.55;;;0.80;77.84
73106;BME280;61559;50.476;15.588;2023-04-28T04:28:43;97848.45;;;0.84;77.65
73106;BME280;61559;50.476;15.588;2023-04-28T04:31:15;97851.58;;;0.92;77.74
73106;BME280;61559;50.476;15.588;2023-04-28T04:33:47;97851.85;;;0.98;77.85
73106;BME280;61559;50.476;15.588;2023-04-28T04:36:18;97859.48;;;1.05;77.84
73106;BME280;61559;50.476;15.588;2023-04-28T04:38:49;97859.67;;;1.11;77.81
73106;BME280;61559;50.476;15.588;2023-04-28T04:41:24;97858.94;;;1.18;78.10
73106;BME280;61559;50.476;15.588;2023-04-28T04:43:55;97855.92;;;1.25;78.17
73106;BME280;61559;50.476;15.588;2023-04-28T04:46:26;97853.48;;;1.32;78.03
73106;BME280;61559;50.476;15.588;2023-04-28T04:48:57;97852.15;;;1.38;77.76
73106;BME280;61559;50.476;15.588;2023-04-28T04:51:29;97852.67;;;1.44;77.53
73106;BME280;61559;50.476;15.588;2023-04-28T04:54:00;97850.52;;;1.51;77.51
73106;BME280;61559;50.476;15.588;2023-04-28T04:56:32;97851.41;;;1.59;77.52
73106;BME280;61559;50.476;15.588;2023-04-28T04:59:03;97848.53;;;1.65;77.71
73106;BME280;61559;50.476;15.588;2023-04-28T05:01:33;97846.70;;;1.71;77.52
73106;BME280;61559;50.476;15.588;2023-04-28T05:04:05;97839.96;;;1.76;77.70
73106;BME280;61559;50.476;15.588;2023-04-28T05:06:36;97834.99;;;1.82;77.40
73106;BME280;61559;50.476;15.588;2023-04-28T05:09:06;97836.36;;;1.88;77.36
73106;BME280;61559;50.476;15.588;2023-04-28T05:11:37;97836.26;;;1.93;77.09
73106;BME280;61559;50.476;15.588;2023-04-28T05:14:08;97834.64;;;2.01;77.14
73106;BME280;61559;50.476;15.588;2023-04-28T05:16:41;97831.90;;;2.08;76.95
73106;BME280;61559;50.476;15.588;2023-04-28T05:19:13;97832.47;;;2.16;76.94
73106;BME280;61559;50.476;15.588;2023-04-28T05:21:43;97831.58;;;2.26;77.01
73106;BME280;61559;50.476;15.588;2023-04-28T05:24:16;97835.82;;;2.37;77.15
73106;BME280;61559;50.476;15.588;2023-04-28T05:26:51;97831.92;;;2.48;77.13
73106;BME280;61559;50.476;15.588;2023-04-28T05:29:22;97833.30;;;2.59;76.98
73106;BME280;61559;50.476;15.588;2023-04-28T05:31:53;97831.06;;;2.72;77.05
73106;BME280;61559;50.476;15.588;2023-04-28T05:34:25;97829.14;;;2.86;76.94
73106;BME280;61559;50.476;15.588;2023-04-28T05:36:56;97827.62;;;2.98;76.76
73106;BME280;61559;50.476;15.588;2023-04-28T05:39:27;97822.64;;;3.12;76.54
73106;BME280;61559;50.476;15.588;2023-04-28T05:41:57;97819.52;;;3.26;76.42
73106;BME280;61559;50.476;15.588;2023-04-28T05:44:28;97818.95;;;3.37;76.61
73106;BME280;61559;50.476;15.588;2023-04-28T05:46:59;97817.12;;;3.52;76.43
73106;BME280;61559;50.476;15.588;2023-04-28T05:49:30;97813.17;;;3.68;76.29
73106;BME280;61559;50.476;15.588;2023-04-28T05:52:02;97807.06;;;3.82;75.92
73106;BME280;61559;50.476;15.588;2023-04-28T05:54:33;97806.10;;;3.97;75.94
73106;BME280;61559;50.476;15.588;2023-04-28T05:57:05;97809.75;;;4.13;75.26
73106;BME280;61559;50.476;15.588;2023-04-28T05:59:36;97804.98;;;4.31;74.66
73106;BME280;61559;50.476;15.588;2023-04-28T06:02:07;97800.03;;;4.52;73.78
73106;BME280;61559;50.476;15.588;2023-04-28T06:04:37;97798.08;;;4.78;73.33
73106;BME280;61559;50.476;15.588;2023-04-28T06:07:08;97797.96;;;5.06;70.95
73106;BME280;61559;50.476;15.588;2023-04-28T06:09:38;97795.63;;;5.36;68.45
73106;BME280;61559;50.476;15.588;2023-04-28T06:12:09;97795.83;;;5.61;67.18
73106;BME280;61559;50.476;15.588;2023-04-28T06:14:38;97784.05;;;5.86;66.50
73106;BME280;61559;50.476;15.588;2023-04-28T06:17:10;97779.77;;;6.06;64.26
73106;BME280;61559;50.476;15.588;2023-04-28T06:19:41;97773.79;;;6.24;64.27
73106;BME280;61559;50.476;15.588;2023-04-28T06:22:10;97780.09;;;6.44;64.55
73106;BME280;61559;50.476;15.588;2023-04-28T06:24:41;97777.58;;;6.60;63.80
73106;BME280;61559;50.476;15.588;2023-04-28T06:27:12;97776.20;;;6.73;62.68
73106;BME280;61559;50.476;15.588;2023-04-28T06:29:43;97773.91;;;6.88;61.86
73106;BME280;61559;50.476;15.588;2023-04-28T06:32:15;97780.03;;;7.01;60.42
73106;BME280;61559;50.476;15.588;2023-04-28T06:34:46;97777.89;;;7.13;59.56
73106;BME280;61559;50.476;15.588;2023-04-28T06:37:17;97776.73;;;7.21;59.29
73106;BME280;61559;50.476;15.588;2023-04-28T06:39:48;97775.16;;;7.32;59.16
73106;BME280;61559;50.476;15.588;2023-04-28T06:42:19;97774.80;;;7.44;59.09
73106;BME280;61559;50.476;15.588;2023-04-28T06:44:48;97777.73;;;7.54;59.38
73106;BME280;61559;50.476;15.588;2023-04-28T06:47:20;97779.48;;;7.60;58.23
73106;BME280;61559;50.476;15.588;2023-04-28T06:49:54;97779.42;;;7.67;58.47
73106;BME280;61559;50.476;15.588;2023-04-28T06:52:26;97779.68;;;7.74;57.71
73106;BME280;61559;50.476;15.588;2023-04-28T06:55:13;97781.13;;;7.81;57.95
73106;BME280;61559;50.476;15.588;2023-04-28T06:57:44;97778.05;;;7.91;57.40
73106;BME280;61559;50.476;15.588;2023-04-28T07:00:17;97771.15;;;7.99;57.10
73106;BME280;61559;50.476;15.588;2023-04-28T07:02:48;97767.81;;;8.08;57.18
73106;BME280;61559;50.476;15.588;2023-04-28T07:05:20;97766.09;;;8.16;56.47
73106;BME280;61559;50.476;15.588;2023-04-28T07:07:51;97760.00;;;8.24;56.45
73106;BME280;61559;50.476;15.588;2023-04-28T07:10:22;97751.48;;;8.34;56.97
73106;BME280;61559;50.476;15.588;2023-04-28T07:12:53;97749.66;;;8.43;55.79
73106;BME280;61559;50.476;15.588;2023-04-28T07:15:24;97753.10;;;8.49;54.90
73106;BME280;61559;50.476;15.588;2023-04-28T07:17:56;97754.74;;;8.52;54.84
73106;BME280;61559;50.476;15.588;2023-04-28T07:20:27;97755.31;;;8.57;55.14
73106;BME280;61559;50.476;15.588;2023-04-28T07:22:58;97752.38;;;8.63;54.58
73106;BME280;61559;50.476;15.588;2023-04-28T07:25:30;97744.30;;;8.70;55.01
73106;BME280;61559;50.476;15.588;2023-04-28T07:28:03;97745.55;;;8.79;54.98
73106;BME280;61559;50.476;15.588;2023-04-28T07:30:35;97746.60;;;8.86;54.40
73106;BME280;61559;50.476;15.588;2023-04-28T07:33:06;97745.90;;;8.90;53.34
73106;BME280;61559;50.476;15.588;2023-04-28T07:35:37;97742.54;;;8.96;54.57
73106;BME280;61559;50.476;15.588;2023-04-28T07:38:09;97738.09;;;9.05;53.41
73106;BME280;61559;50.476;15.588;2023-04-28T07:40:40;97734.73;;;9.12;53.39
73106;BME280;61559;50.476;15.588;2023-04-28T07:43:11;97736.55;;;9.21;52.80
73106;BME280;61559;50.476;15.588;2023-04-28T07:45:43;97736.86;;;9.28;53.16
73106;BME280;61559;50.476;15.588;2023-04-28T07:48:17;97732.77;;;9.36;52.65
73106;BME280;61559;50.476;15.588;2023-04-28T07:50:48;97729.03;;;9.47;52.90
73106;BME280;61559;50.476;15.588;2023-04-28T07:53:20;97725.10;;;9.55;52.33
73106;BME280;61559;50.476;15.588;2023-04-28T07:55:51;97723.86;;;9.66;52.80
73106;BME280;61559;50.476;15.588;2023-04-28T07:58:23;97724.71;;;9.76;52.89
73106;BME280;61559;50.476;15.588;2023-04-28T08:00:54;97721.10;;;9.87;52.51
73106;BME280;61559;50.476;15.588;2023-04-28T08:03:25;97717.24;;;9.97;52.82
73106;BME280;61559;50.476;15.588;2023-04-28T08:05:58;97720.13;;;10.11;53.45
73106;BME280;61559;50.476;15.588;2023-04-28T08:08:30;97717.81;;;10.24;52.62
73106;BME280;61559;50.476;15.588;2023-04-28T08:11:01;97721.48;;;10.37;53.17
73106;BME280;61559;50.476;15.588;2023-04-28T08:13:33;97713.80;;;10.50;52.10
73106;BME280;61559;50.476;15.588;2023-04-28T08:16:05;97708.35;;;10.59;51.08
73106;BME280;61559;50.476;15.588;2023-04-28T08:18:36;97710.35;;;10.68;51.51
73106;BME280;61559;50.476;15.588;2023-04-28T08:21:08;97705.97;;;10.77;50.39
73106;BME280;61559;50.476;15.588;2023-04-28T08:23:39;97703.06;;;10.83;50.30
73106;BME280;61559;50.476;15.588;2023-04-28T08:26:11;97701.55;;;10.89;50.29
73106;BME280;61559;50.476;15.588;2023-04-28T08:28:42;97700.16;;;10.96;50.76
73106;BME280;61559;50.476;15.588;2023-04-28T08:31:13;97698.46;;;11.03;50.04
73106;BME280;61559;50.476;15.588;2023-04-28T08:33:44;97696.70;;;11.10;49.78
73106;BME280;61559;50.476;15.588;2023-04-28T08:36:18;97701.38;;;11.18;50.30
73106;BME280;61559;50.476;15.588;2023-04-28T08:38:49;97703.71;;;11.27;50.07
73106;BME280;61559;50.476;15.588;2023-04-28T08:41:21;97701.13;;;11.28;49.90
73106;BME280;61559;50.476;15.588;2023-04-28T08:43:52;97695.05;;;11.36;50.83
73106;BME280;61559;50.476;15.588;2023-04-28T08:46:24;97690.38;;;11.43;50.50
73106;BME280;61559;50.476;15.588;2023-04-28T08:49:00;97687.14;;;11.50;49.88
73106;BME280;61559;50.476;15.588;2023-04-28T08:51:43;97684.48;;;11.56;49.62
73106;BME280;61559;50.476;15.588;2023-04-28T08:54:16;97683.22;;;11.65;50.44
73106;BME280;61559;50.476;15.588;2023-04-28T08:56:58;97678.61;;;11.74;49.20
73106;BME280;61559;50.476;15.588;2023-04-28T08:59:30;97680.16;;;11.83;49.98
73106;BME280;61559;50.476;15.588;2023-04-28T09:02:02;97672.63;;;11.91;48.66
73106;BME280;61559;50.476;15.588;2023-04-28T09:04:34;97662.59;;;11.96;49.10
73106;BME280;61559;50.476;15.588;2023-04-28T09:07:11;97662.27;;;12.01;48.66
73106;BME280;61559;50.476;15.588;2023-04-28T09:09:42;97661.95;;;12.10;49.48
73106;BME280;61559;50.476;15.588;2023-04-28T09:12:14;97662.31;;;12.17;49.23
73106;BME280;61559;50.476;15.588;2023-04-28T09:14:45;97650.70;;;12.24;48.98
73106;BME280;61559;50.476;15.588;2023-04-28T09:17:27;97648.01;;;12.33;49.04
73106;BME280;61559;50.476;15.588;2023-04-28T09:20:00;97647.20;;;12.41;48.64
73106;BME280;61559;50.476;15.588;2023-04-28T09:22:33;97647.01;;;12.52;49.30
73106;BME280;61559;50.476;15.588;2023-04-28T09:25:13;97642.88;;;12.59;48.29
73106;BME280;61559;50.476;15.588;2023-04-28T09:27:44;97640.37;;;12.62;49.02
73106;BME280;61559;50.476;15.588;2023-04-28T09:30:15;97640.32;;;12.65;47.26
73106;BME280;61559;50.476;15.588;2023-04-28T09:33:04;97640.52;;;12.68;47.94
73106;BME280;61559;50.476;15.588;2023-04-28T09:35:43;97640.14;;;12.72;48.07
73106;BME280;61559;50.476;15.588;2023-04-28T09:38:17;97633.66;;;12.79;47.92
73106;BME280;61559;50.476;15.588;2023-04-28T09:40:53;97628.82;;;12.89;48.06
73106;BME280;61559;50.476;15.588;2023-04-28T09:43:26;97625.60;;;12.98;47.20
73106;BME280;61559;50.476;15.588;2023-04-28T09:45:59;97617.34;;;13.04;47.57
73106;BME280;61559;50.476;15.588;2023-04-28T09:48:32;97612.50;;;13.07;46.53
73106;BME280;61559;50.476;15.588;2023-04-28T09:51:06;97607.00;;;13.10;47.48
73106;BME280;61559;50.476;15.588;2023-04-28T09:53:41;97602.33;;;13.18;48.23
73106;BME280;61559;50.476;15.588;2023-04-28T09:56:12;97595.59;;;13.31;47.91
73106;BME280;61559;50.476;15.588;2023-04-28T09:58:44;97598.26;;;13.38;47.13
73106;BME280;61559;50.476;15.588;2023-04-28T10:01:17;97602.48;;;13.41;46.48
73106;BME280;61559;50.476;15.588;2023-04-28T10:03:49;97602.33;;;13.46;47.07
73106;BME280;61559;50.476;15.588;2023-04-28T10:06:24;97596.09;;;13.54;47.07
73106;BME280;61559;50.476;15.588;2023-04-28T10:08:57;97588.89;;;13.63;46.00
73106;BME280;61559;50.476;15.588;2023-04-28T10:11:29;97589.48;;;13.70;46.75
73106;BME280;61559;50.476;15.588;2023-04-28T10:14:02;97585.16;;;13.74;46.04
73106;BME280;61559;50.476;15.588;2023-04-28T10:16:33;97588.69;;;13.78;45.96
73106;BME280;61559;50.476;15.588;2023-04-28T10:19:05;97586.02;;;13.83;45.47
73106;BME280;61559;50.476;15.588;2023-04-28T10:21:39;97587.05;;;13.91;44.82
73106;BME280;61559;50.476;15.588;2023-04-28T10:24:23;97584.56;;;14.02;45.59
73106;BME280;61559;50.476;15.588;2023-04-28T10:27:07;97572.01;;;14.13;42.89
73106;BME280;61559;50.476;15.588;2023-04-28T10:29:39;97568.24;;;14.24;42.70
73106;BME280;61559;50.476;15.588;2023-04-28T10:32:17;97557.83;;;14.32;43.39
73106;BME280;61559;50.476;15.588;2023-04-28T10:34:49;97562.02;;;14.39;42.98
73106;BME280;61559;50.476;15.588;2023-04-28T10:37:21;97556.16;;;14.47;44.33
73106;BME280;61559;50.476;15.588;2023-04-28T10:40:33;97546.84;;;14.58;43.92
73106;BME280;61559;50.476;15.588;2023-04-28T10:43:05;97544.67;;;14.65;43.40
73106;BME280;61559;50.476;15.588;2023-04-28T10:46:01;97534.52;;;14.68;43.78
73106;BME280;61559;50.476;15.588;2023-04-28T10:49:05;97528.02;;;14.72;41.52
73106;BME280;61559;50.476;15.588;2023-04-28T10:51:37;97524.80;;;14.74;41.20
73106;BME280;61559;50.476;15.588;2023-04-28T10:54:18;97526.30;;;14.78;41.28
73106;BME280;61559;50.476;15.588;2023-04-28T10:57:21;97520.52;;;14.84;39.42
73106;BME280;61559;50.476;15.588;2023-04-28T10:59:52;97518.71;;;14.95;40.52
73106;BME280;61559;50.476;15.588;2023-04-28T11:02:44;97512.94;;;15.07;40.35
73106;BME280;61559;50.476;15.588;2023-04-28T11:05:18;97510.80;;;15.20;41.41
73106;BME280;61559;50.476;15.588;2023-04-28T11:11:19;97492.19;;;15.39;40.29
73106;BME280;61559;50.476;15.588;2023-04-28T11:13:51;97477.56;;;15.39;40.21
73106;BME280;61559;50.476;15.588;2023-04-28T11:16:24;97500.63;;;15.42;39.93
73106;BME280;61559;50.476;15.588;2023-04-28T11:19:00;97501.41;;;15.48;38.98
73106;BME280;61559;50.476;15.588;2023-04-28T11:21:35;97503.31;;;15.56;38.92
73106;BME280;61559;50.476;15.588;2023-04-28T11:24:10;97501.70;;;15.64;39.58
73106;BME280;61559;50.476;15.588;2023-04-28T11:26:42;97503.08;;;15.80;40.60
73106;BME280;61559;50.476;15.588;2023-04-28T11:29:13;97502.67;;;15.96;39.63
73106;BME280;61559;50.476;15.588;2023-04-28T11:31:51;97498.15;;;16.00;37.14
73106;BME280;61559;50.476;15.588;2023-04-28T11:34:22;97504.02;;;16.05;38.64
73106;BME280;61559;50.476;15.588;2023-04-28T11:36:54;97497.06;;;16.10;38.96
73106;BME280;61559;50.476;15.588;2023-04-28T11:39:30;97503.10;;;16.15;37.96
73106;BME280;61559;50.476;15.588;2023-04-28T11:42:08;97498.23;;;16.20;37.29
73106;BME280;61559;50.476;15.588;2023-04-28T11:44:40;97497.59;;;16.24;38.01
73106;BME280;61559;50.476;15.588;2023-04-28T11:47:10;97504.60;;;16.26;38.00
73106;BME280;61559;50.476;15.588;2023-04-28T11:49:46;97504.23;;;16.30;37.71
73106;BME280;61559;50.476;15.588;2023-04-28T11:52:18;97500.89;;;16.34;37.16
73106;BME280;61559;50.476;15.588;2023-04-28T11:54:54;97487.47;;;16.39;37.33
73106;BME280;61559;50.476;15.588;2023-04-28T11:57:26;97480.39;;;16.48;37.46
73106;BME280;61559;50.476;15.588;2023-04-28T12:00:14;97483.16;;;16.57;38.23
73106;BME280;61559;50.476;15.588;2023-04-28T12:02:51;97487.20;;;16.71;39.22
73106;BME280;61559;50.476;15.588;2023-04-28T12:05:22;97486.94;;;16.77;36.73
73106;BME280;61559;50.476;15.588;2023-04-28T12:07:53;97482.98;;;16.76;37.40
73106;BME280;61559;50.476;15.588;2023-04-28T12:10:24;97487.77;;;16.78;37.06
73106;BME280;61559;50.476;15.588;2023-04-28T12:12:56;97483.70;;;16.78;37.39
73106;BME280;61559;50.476;15.588;2023-04-28T12:15:40;97486.34;;;16.77;37.18
73106;BME280;61559;50.476;15.588;2023-04-28T12:18:11;97486.98;;;16.75;37.03
73106;BME280;61559;50.476;15.588;2023-04-28T12:20:45;97480.84;;;16.68;36.72
73106;BME280;61559;50.476;15.588;2023-04-28T12:23:16;97473.70;;;16.60;36.28
73106;BME280;61559;50.476;15.588;2023-04-28T12:25:58;97478.67;;;16.56;37.84
73106;BME280;61559;50.476;15.588;2023-04-28T12:28:38;97469.31;;;16.51;37.23
73106;BME280;61559;50.476;15.588;2023-04-28T12:31:10;97474.75;;;16.53;38.09
73106;BME280;61559;50.476;15.588;2023-04-28T12:33:41;97468.86;;;16.52;37.32
73106;BME280;61559;50.476;15.588;2023-04-28T12:36:13;97470.58;;;16.43;37.24
73106;BME280;61559;50.476;15.588;2023-04-28T12:38:49;97475.70;;;16.34;37.40
73106;BME280;61559;50.476;15.588;2023-04-28T12:41:20;97472.39;;;16.27;37.61
73106;BME280;61559;50.476;15.588;2023-04-28T12:43:52;97472.41;;;16.24;38.84
73106;BME280;61559;50.476;15.588;2023-04-28T12:46:23;97479.19;;;16.25;37.98
73106;BME280;61559;50.476;15.588;2023-04-28T12:48:54;97477.35;;;16.19;37.65
73106;BME280;61559;50.476;15.588;2023-04-28T12:51:26;97475.20;;;16.07;37.78
73106;BME280;61559;50.476;15.588;2023-04-28T12:53:58;97469.52;;;16.01;38.63
73106;BME280;61559;50.476;15.588;2023-04-28T12:56:30;97470.55;;;16.00;39.27
73106;BME280;61559;50.476;15.588;2023-04-28T12:59:02;97460.78;;;15.98;38.82
73106;BME280;61559;50.476;15.588;2023-04-28T13:01:33;97464.59;;;15.96;38.64
73106;BME280;61559;50.476;15.588;2023-04-28T13:04:04;97460.27;;;15.92;38.90
73106;BME280;61559;50.476;15.588;2023-04-28T13:06:36;97451.69;;;15.89;39.34
73106;BME280;61559;50.476;15.588;2023-04-28T13:09:15;97451.17;;;15.85;39.72
73106;BME280;61559;50.476;15.588;2023-04-28T13:11:46;97450.94;;;15.85;39.68
73106;BME280;61559;50.476;15.588;2023-04-28T13:14:18;97449.29;;;15.84;40.12
73106;BME280;61559;50.476;15.588;2023-04-28T13:16:49;97448.27;;;15.85;39.81
73106;BME280;61559;50.476;15.588;2023-04-28T13:19:21;97442.45;;;15.87;39.92
73106;BME280;61559;50.476;15.588;2023-04-28T13:21:52;97441.42;;;15.88;40.47
73106;BME280;61559;50.476;15.588;2023-04-28T13:24:23;97439.80;;;15.89;40.86
73106;BME280;61559;50.476;15.588;2023-04-28T13:26:54;97436.48;;;15.86;40.18